IGO301 OMDB-VABB
Flight info
| Callsign | IGO301 |
|---|---|
| Flight time | 2h 21m |
| Altitude | 35000 |
| Route | OMDB/12R N0446F370 IVUR1G IVURO M677 LALDO B505 NADSO A777 VAXIM L301 KARKU M638 EXOLU POKO2A VABB/27 |
| Aircraft | A321/M-SDFGHIRWY/C |
Departure
| Time | 2026-05-04 05:06 |
|---|---|
| Airport | Dubai International Airport (OMDB) |
Arrival
| Time | 2026-05-04 07:27 |
|---|---|
| Airport | Chhatrapati Shivaji Maharaj International Airport (VABB) |
| Time | Latitude | Longitude | Altitude | Speed | Heading |
|---|---|---|---|---|---|
| 2026-05-04 04:44 | 25.24920 | 55.36224 | 24 ft | 0 kts | 211° |
| 2026-05-04 04:58 | 25.24930 | 55.36231 | 24 ft | 3 kts | 211° |
| 2026-05-04 04:58 | 25.24940 | 55.36238 | 25 ft | 3 kts | 211° |
| 2026-05-04 04:58 | 25.24957 | 55.36249 | 23 ft | 3 kts | 211° |
| 2026-05-04 04:58 | 25.24978 | 55.36263 | 26 ft | 3 kts | 227° |
| 2026-05-04 04:59 | 25.24991 | 55.36278 | 26 ft | 3 kts | 236° |
| 2026-05-04 04:59 | 25.24995 | 55.36291 | 28 ft | 3 kts | 279° |
| 2026-05-04 04:59 | 25.24992 | 55.36301 | 27 ft | 0 kts | 302° |
| 2026-05-04 05:04 | 25.25115 | 55.36327 | 20 ft | 22 kts | 37° |
| 2026-05-04 05:04 | 25.25243 | 55.36417 | 3 ft | 14 kts | 44° |
| 2026-05-04 05:04 | 25.25238 | 55.36531 | 4 ft | 19 kts | 130° |
| 2026-05-04 05:06 | 25.20355 | 55.45766 | 2256 ft | 304 kts | 107° |
| 2026-05-04 05:06 | 25.20036 | 55.48098 | 2832 ft | 312 kts | 93° |
| 2026-05-04 05:06 | 25.19945 | 55.50533 | 3410 ft | 322 kts | 91° |
| 2026-05-04 05:07 | 25.19892 | 55.53047 | 3994 ft | 332 kts | 91° |
| 2026-05-04 05:07 | 25.19836 | 55.55627 | 4585 ft | 340 kts | 91° |
| 2026-05-04 05:07 | 25.19772 | 55.58278 | 5156 ft | 349 kts | 91° |
| 2026-05-04 05:09 | 25.33194 | 55.74063 | 9774 ft | 384 kts | 39° |
| 2026-05-04 05:09 | 25.34923 | 55.76315 | 10319 ft | 392 kts | 57° |
| 2026-05-04 05:10 | 25.35874 | 55.79150 | 10863 ft | 397 kts | 77° |
| 2026-05-04 05:10 | 25.36264 | 55.82168 | 11391 ft | 400 kts | 82° |
| 2026-05-04 05:10 | 25.36551 | 55.85247 | 11747 ft | 403 kts | 83° |
| 2026-05-04 05:10 | 25.36835 | 55.88333 | 12084 ft | 404 kts | 82° |
| 2026-05-04 05:11 | 25.37132 | 55.91429 | 12428 ft | 406 kts | 82° |
| 2026-05-04 05:11 | 25.37168 | 55.94555 | 12764 ft | 409 kts | 95° |
| 2026-05-04 05:11 | 25.36653 | 55.97651 | 13119 ft | 411 kts | 101° |
| 2026-05-04 05:11 | 25.35991 | 56.00733 | 13470 ft | 413 kts | 102° |
| 2026-05-04 05:12 | 25.35316 | 56.03786 | 13790 ft | 414 kts | 102° |
| 2026-05-04 05:12 | 25.34634 | 56.06885 | 14110 ft | 416 kts | 102° |
| 2026-05-04 05:12 | 25.33955 | 56.10001 | 14428 ft | 418 kts | 102° |
| 2026-05-04 05:12 | 25.33276 | 56.13132 | 14748 ft | 420 kts | 101° |
| 2026-05-04 05:13 | 25.32712 | 56.16299 | 15066 ft | 421 kts | 97° |
| 2026-05-04 05:13 | 25.32325 | 56.19520 | 15409 ft | 423 kts | 94° |
| 2026-05-04 05:13 | 25.32039 | 56.22760 | 15733 ft | 424 kts | 92° |
| 2026-05-04 05:13 | 25.31796 | 56.26024 | 16075 ft | 427 kts | 92° |
| 2026-05-04 05:14 | 25.31562 | 56.29303 | 16418 ft | 429 kts | 92° |
| 2026-05-04 05:14 | 25.31320 | 56.32599 | 16759 ft | 432 kts | 92° |
| 2026-05-04 05:14 | 25.31063 | 56.35914 | 17127 ft | 435 kts | 92° |
| 2026-05-04 05:14 | 25.30802 | 56.39259 | 17481 ft | 437 kts | 92° |
| 2026-05-04 05:15 | 25.30621 | 56.42618 | 17824 ft | 439 kts | 90° |
| 2026-05-04 05:15 | 25.30505 | 56.45997 | 18178 ft | 440 kts | 89° |
| 2026-05-04 05:15 | 25.30421 | 56.49377 | 18488 ft | 441 kts | 89° |
| 2026-05-04 05:15 | 25.30396 | 56.50473 | 18589 ft | 441 kts | 89° |
| 2026-05-04 05:16 | 25.29882 | 56.59379 | 19423 ft | 445 kts | 99° |
| 2026-05-04 05:16 | 25.29048 | 56.62688 | 19745 ft | 447 kts | 106° |
| 2026-05-04 05:16 | 25.28003 | 56.65925 | 20077 ft | 448 kts | 109° |
| 2026-05-04 05:17 | 25.26842 | 56.69126 | 20402 ft | 449 kts | 111° |
| 2026-05-04 05:17 | 25.25623 | 56.72309 | 20732 ft | 451 kts | 111° |
| 2026-05-04 05:17 | 25.24378 | 56.75499 | 21086 ft | 453 kts | 111° |
| 2026-05-04 05:17 | 25.23127 | 56.78705 | 21431 ft | 455 kts | 111° |
| 2026-05-04 05:18 | 25.21879 | 56.81924 | 21771 ft | 457 kts | 111° |
| 2026-05-04 05:18 | 25.20651 | 56.85118 | 22136 ft | 459 kts | 111° |
| 2026-05-04 05:18 | 25.19406 | 56.88374 | 22496 ft | 462 kts | 111° |
| 2026-05-04 05:18 | 25.18156 | 56.91655 | 22852 ft | 464 kts | 111° |
| 2026-05-04 05:19 | 25.16897 | 56.94964 | 23229 ft | 467 kts | 111° |
| 2026-05-04 05:19 | 25.15629 | 56.98295 | 23561 ft | 471 kts | 111° |
| 2026-05-04 05:19 | 25.14357 | 57.01634 | 23856 ft | 474 kts | 111° |
| 2026-05-04 05:19 | 25.13073 | 57.04999 | 24168 ft | 477 kts | 111° |
| 2026-05-04 05:20 | 25.11778 | 57.08390 | 24488 ft | 480 kts | 111° |
| 2026-05-04 05:20 | 25.10473 | 57.11804 | 24807 ft | 484 kts | 112° |
| 2026-05-04 05:20 | 25.09179 | 57.15186 | 25123 ft | 487 kts | 112° |
| 2026-05-04 05:20 | 25.07860 | 57.18631 | 25448 ft | 490 kts | 112° |
| 2026-05-04 05:21 | 25.06530 | 57.22100 | 25771 ft | 492 kts | 112° |
| 2026-05-04 05:21 | 25.05193 | 57.25585 | 26102 ft | 495 kts | 112° |
| 2026-05-04 05:21 | 25.03848 | 57.29088 | 26441 ft | 497 kts | 112° |
| 2026-05-04 05:21 | 25.02497 | 57.32605 | 26783 ft | 499 kts | 112° |
| 2026-05-04 05:22 | 25.01138 | 57.36138 | 27125 ft | 501 kts | 112° |
| 2026-05-04 05:22 | 24.99776 | 57.39677 | 27479 ft | 502 kts | 112° |
| 2026-05-04 05:22 | 24.98409 | 57.43226 | 27810 ft | 504 kts | 112° |
| 2026-05-04 05:22 | 24.97038 | 57.46782 | 28172 ft | 505 kts | 112° |
| 2026-05-04 05:23 | 24.95662 | 57.50347 | 28531 ft | 506 kts | 112° |
| 2026-05-04 05:23 | 24.94284 | 57.53916 | 28892 ft | 506 kts | 112° |
| 2026-05-04 05:23 | 24.92902 | 57.57493 | 29259 ft | 507 kts | 113° |
| 2026-05-04 05:23 | 24.91515 | 57.61079 | 29633 ft | 508 kts | 113° |
| 2026-05-04 05:24 | 24.90129 | 57.64659 | 29984 ft | 508 kts | 113° |
| 2026-05-04 05:24 | 24.88743 | 57.68234 | 30312 ft | 508 kts | 113° |
| 2026-05-04 05:24 | 24.87372 | 57.71771 | 30620 ft | 508 kts | 113° |
| 2026-05-04 05:24 | 24.85968 | 57.75389 | 30948 ft | 507 kts | 113° |
| 2026-05-04 05:25 | 24.84598 | 57.78916 | 31278 ft | 507 kts | 113° |
| 2026-05-04 05:25 | 24.83203 | 57.82483 | 31603 ft | 506 kts | 114° |
| 2026-05-04 05:25 | 24.81745 | 57.86004 | 31926 ft | 505 kts | 116° |
| 2026-05-04 05:25 | 24.80236 | 57.89493 | 32262 ft | 503 kts | 116° |
| 2026-05-04 05:26 | 24.78707 | 57.92960 | 32611 ft | 502 kts | 117° |
| 2026-05-04 05:26 | 24.77175 | 57.96414 | 32773 ft | 502 kts | 117° |
| 2026-05-04 05:26 | 24.74121 | 58.03322 | 32789 ft | 502 kts | 116° |
| 2026-05-04 05:28 | 24.61716 | 58.31576 | 32784 ft | 521 kts | 116° |
| 2026-05-04 05:29 | 24.58558 | 58.38749 | 32783 ft | 521 kts | 116° |
| 2026-05-04 05:29 | 24.55395 | 58.45920 | 32783 ft | 521 kts | 116° |
| 2026-05-04 05:31 | 24.42715 | 58.74551 | 32783 ft | 520 kts | 116° |
| 2026-05-04 05:32 | 24.39546 | 58.81683 | 32787 ft | 520 kts | 116° |
| 2026-05-04 05:33 | 24.34785 | 58.92381 | 32786 ft | 520 kts | 116° |
| 2026-05-04 05:33 | 24.31604 | 58.99517 | 32785 ft | 520 kts | 116° |
| 2026-05-04 05:34 | 24.28420 | 59.06647 | 32784 ft | 520 kts | 116° |
| 2026-05-04 05:34 | 24.25237 | 59.13765 | 32787 ft | 520 kts | 116° |
| 2026-05-04 05:35 | 24.22050 | 59.20880 | 32787 ft | 520 kts | 116° |
| 2026-05-04 05:35 | 24.18862 | 59.27987 | 32785 ft | 520 kts | 116° |
| 2026-05-04 05:36 | 24.15685 | 59.35058 | 32785 ft | 520 kts | 116° |
| 2026-05-04 05:36 | 24.12482 | 59.42177 | 32786 ft | 521 kts | 116° |
| 2026-05-04 05:37 | 24.09269 | 59.49307 | 32778 ft | 520 kts | 116° |
| 2026-05-04 05:37 | 24.06069 | 59.56390 | 32779 ft | 519 kts | 116° |
| 2026-05-04 05:38 | 24.01258 | 59.67023 | 32782 ft | 520 kts | 116° |
| 2026-05-04 05:38 | 23.98044 | 59.74118 | 32781 ft | 520 kts | 116° |
| 2026-05-04 05:39 | 23.93238 | 59.84708 | 32767 ft | 520 kts | 116° |
| 2026-05-04 05:40 | 23.88412 | 59.95323 | 32780 ft | 520 kts | 116° |
| 2026-05-04 05:40 | 23.85186 | 60.02405 | 32781 ft | 520 kts | 116° |
| 2026-05-04 05:41 | 23.81959 | 60.09477 | 32779 ft | 520 kts | 116° |
| 2026-05-04 05:41 | 23.78724 | 60.16554 | 32779 ft | 520 kts | 116° |
| 2026-05-04 05:42 | 23.75508 | 60.23577 | 32779 ft | 521 kts | 116° |
| 2026-05-04 05:42 | 23.72265 | 60.30650 | 32779 ft | 520 kts | 116° |
| 2026-05-04 05:43 | 23.69028 | 60.37701 | 32779 ft | 520 kts | 116° |
| 2026-05-04 05:45 | 23.56029 | 60.65906 | 32776 ft | 521 kts | 116° |
| 2026-05-04 05:47 | 23.43000 | 60.94011 | 32777 ft | 520 kts | 116° |
| 2026-05-04 05:47 | 23.39729 | 61.01041 | 32779 ft | 521 kts | 116° |
| 2026-05-04 05:48 | 23.36451 | 61.08075 | 32784 ft | 521 kts | 116° |
| 2026-05-04 05:48 | 23.33190 | 61.15115 | 32780 ft | 520 kts | 113° |
| 2026-05-04 05:49 | 23.31988 | 61.18811 | 32779 ft | 517 kts | 102° |
| 2026-05-04 05:49 | 23.31347 | 61.22596 | 32784 ft | 515 kts | 96° |
| 2026-05-04 05:49 | 23.30505 | 61.30333 | 32782 ft | 515 kts | 93° |
| 2026-05-04 05:51 | 23.27956 | 61.60103 | 32784 ft | 516 kts | 93° |
| 2026-05-04 05:52 | 23.27250 | 61.67876 | 32787 ft | 516 kts | 93° |
| 2026-05-04 05:52 | 23.26425 | 61.76916 | 32788 ft | 516 kts | 93° |
| 2026-05-04 05:54 | 23.23677 | 62.06665 | 32788 ft | 515 kts | 93° |
| 2026-05-04 05:55 | 23.22952 | 62.14417 | 32788 ft | 515 kts | 93° |
| 2026-05-04 05:55 | 23.22222 | 62.22170 | 32788 ft | 515 kts | 93° |
| 2026-05-04 05:56 | 23.21489 | 62.29927 | 32793 ft | 516 kts | 93° |
| 2026-05-04 05:56 | 23.20756 | 62.37641 | 32794 ft | 516 kts | 93° |
| 2026-05-04 05:57 | 23.20014 | 62.45407 | 32793 ft | 516 kts | 93° |
| 2026-05-04 05:57 | 23.19267 | 62.53179 | 32803 ft | 516 kts | 93° |
| 2026-05-04 05:58 | 23.18518 | 62.60933 | 32797 ft | 516 kts | 93° |
| 2026-05-04 05:58 | 23.17769 | 62.68646 | 32800 ft | 516 kts | 93° |
| 2026-05-04 05:59 | 23.17013 | 62.76401 | 32799 ft | 516 kts | 93° |
| 2026-05-04 05:59 | 23.16252 | 62.84152 | 32799 ft | 516 kts | 93° |
| 2026-05-04 06:00 | 23.15488 | 62.91910 | 32798 ft | 516 kts | 93° |
| 2026-05-04 06:00 | 23.14719 | 62.99676 | 32798 ft | 516 kts | 93° |
| 2026-05-04 06:01 | 23.13948 | 63.07417 | 32799 ft | 515 kts | 93° |
| 2026-05-04 06:03 | 23.10826 | 63.38340 | 32799 ft | 515 kts | 93° |
| 2026-05-04 06:05 | 23.07243 | 63.73163 | 32799 ft | 516 kts | 93° |
| 2026-05-04 06:06 | 23.06436 | 63.80914 | 32798 ft | 517 kts | 93° |
| 2026-05-04 06:06 | 23.04987 | 63.88564 | 32800 ft | 521 kts | 107° |
| 2026-05-04 06:07 | 23.02431 | 63.95944 | 32801 ft | 523 kts | 110° |
| 2026-05-04 06:07 | 22.99657 | 64.03249 | 32801 ft | 523 kts | 111° |
| 2026-05-04 06:08 | 22.96853 | 64.10556 | 32796 ft | 524 kts | 110° |
| 2026-05-04 06:08 | 22.94067 | 64.17874 | 32797 ft | 525 kts | 110° |
| 2026-05-04 06:09 | 22.91293 | 64.25197 | 32798 ft | 525 kts | 110° |
| 2026-05-04 06:11 | 22.80189 | 64.54423 | 32798 ft | 523 kts | 110° |
| 2026-05-04 06:13 | 22.69046 | 64.83556 | 32796 ft | 523 kts | 110° |
| 2026-05-04 06:14 | 22.59278 | 65.08943 | 32795 ft | 522 kts | 111° |
| 2026-05-04 06:15 | 22.56479 | 65.16191 | 32799 ft | 522 kts | 111° |
| 2026-05-04 06:15 | 22.53676 | 65.23440 | 32799 ft | 522 kts | 111° |
| 2026-05-04 06:16 | 22.50869 | 65.30686 | 32802 ft | 522 kts | 111° |
| 2026-05-04 06:16 | 22.48074 | 65.37891 | 32796 ft | 523 kts | 111° |
| 2026-05-04 06:17 | 22.45254 | 65.45149 | 32796 ft | 523 kts | 111° |
| 2026-05-04 06:17 | 22.42432 | 65.52401 | 32789 ft | 523 kts | 111° |
| 2026-05-04 06:18 | 22.39608 | 65.59646 | 32794 ft | 521 kts | 111° |
| 2026-05-04 06:20 | 22.28311 | 65.88520 | 32795 ft | 522 kts | 111° |
| 2026-05-04 06:21 | 22.21206 | 66.06588 | 32799 ft | 524 kts | 111° |
| 2026-05-04 06:22 | 22.18361 | 66.13804 | 32796 ft | 521 kts | 111° |
| 2026-05-04 06:25 | 21.98414 | 66.64096 | 32791 ft | 522 kts | 111° |
| 2026-05-04 06:26 | 21.95552 | 66.71271 | 32798 ft | 521 kts | 111° |
| 2026-05-04 06:26 | 21.92682 | 66.78454 | 32796 ft | 521 kts | 111° |
| 2026-05-04 06:27 | 21.85524 | 66.96322 | 32799 ft | 521 kts | 111° |
| 2026-05-04 06:28 | 21.82639 | 67.03499 | 32794 ft | 521 kts | 111° |
| 2026-05-04 06:28 | 21.79773 | 67.10623 | 32798 ft | 521 kts | 111° |
| 2026-05-04 06:29 | 21.76887 | 67.17785 | 32785 ft | 521 kts | 111° |
| 2026-05-04 06:29 | 21.74006 | 67.24928 | 32799 ft | 519 kts | 111° |
| 2026-05-04 06:30 | 21.71126 | 67.32058 | 32802 ft | 519 kts | 111° |
| 2026-05-04 06:30 | 21.68245 | 67.39189 | 32803 ft | 519 kts | 111° |
| 2026-05-04 06:31 | 21.65357 | 67.46322 | 32801 ft | 519 kts | 111° |
| 2026-05-04 06:31 | 21.62469 | 67.53442 | 32805 ft | 520 kts | 111° |
| 2026-05-04 06:33 | 21.50889 | 67.81879 | 32804 ft | 518 kts | 111° |
| 2026-05-04 06:34 | 21.47996 | 67.88958 | 32806 ft | 517 kts | 111° |
| 2026-05-04 06:34 | 21.45113 | 67.96003 | 32805 ft | 517 kts | 111° |
| 2026-05-04 06:36 | 21.33505 | 68.24269 | 32810 ft | 518 kts | 111° |
| 2026-05-04 06:37 | 21.30593 | 68.31334 | 32805 ft | 517 kts | 112° |
| 2026-05-04 06:37 | 21.27685 | 68.38380 | 32811 ft | 516 kts | 112° |
| 2026-05-04 06:38 | 21.24794 | 68.45373 | 32811 ft | 516 kts | 112° |
| 2026-05-04 06:40 | 21.13623 | 68.72313 | 32816 ft | 516 kts | 112° |
| 2026-05-04 06:40 | 21.10701 | 68.79337 | 32813 ft | 516 kts | 112° |
| 2026-05-04 06:41 | 21.07772 | 68.86365 | 32805 ft | 516 kts | 112° |
| 2026-05-04 06:41 | 21.04853 | 68.93360 | 32816 ft | 514 kts | 112° |
| 2026-05-04 06:42 | 21.01935 | 69.00344 | 32810 ft | 513 kts | 112° |
| 2026-05-04 06:44 | 20.92081 | 69.28875 | 32819 ft | 512 kts | 105° |
| 2026-05-04 06:44 | 20.89886 | 69.36135 | 32817 ft | 512 kts | 105° |
| 2026-05-04 06:45 | 20.87712 | 69.43312 | 32817 ft | 512 kts | 105° |
| 2026-05-04 06:45 | 20.85513 | 69.50563 | 32819 ft | 512 kts | 105° |
| 2026-05-04 06:46 | 20.83321 | 69.57782 | 32820 ft | 512 kts | 105° |
| 2026-05-04 06:46 | 20.81115 | 69.65030 | 32817 ft | 513 kts | 105° |
| 2026-05-04 06:48 | 20.72276 | 69.93960 | 32816 ft | 513 kts | 106° |
| 2026-05-04 06:50 | 20.63357 | 70.22959 | 32814 ft | 514 kts | 106° |
| 2026-05-04 06:51 | 20.61140 | 70.30137 | 32818 ft | 511 kts | 106° |
| 2026-05-04 06:51 | 20.58910 | 70.37344 | 32819 ft | 510 kts | 106° |
| 2026-05-04 06:52 | 20.56681 | 70.44542 | 32816 ft | 510 kts | 106° |
| 2026-05-04 06:52 | 20.54451 | 70.51725 | 32816 ft | 510 kts | 107° |
| 2026-05-04 06:53 | 20.52213 | 70.58920 | 32816 ft | 510 kts | 107° |
| 2026-05-04 06:53 | 20.49987 | 70.66066 | 32817 ft | 511 kts | 107° |
| 2026-05-04 06:54 | 20.47740 | 70.73272 | 32818 ft | 511 kts | 107° |
| 2026-05-04 06:54 | 20.45492 | 70.80468 | 32819 ft | 511 kts | 107° |
| 2026-05-04 06:55 | 20.43256 | 70.87616 | 32824 ft | 511 kts | 107° |
| 2026-05-04 06:55 | 20.41004 | 70.94804 | 32823 ft | 511 kts | 107° |
| 2026-05-04 06:57 | 20.32003 | 71.23420 | 32824 ft | 509 kts | 107° |
| 2026-05-04 06:58 | 20.29746 | 71.30566 | 32822 ft | 508 kts | 107° |
| 2026-05-04 06:58 | 20.27485 | 71.37714 | 32571 ft | 508 kts | 107° |
| 2026-05-04 06:59 | 20.26354 | 71.41286 | 32246 ft | 509 kts | 107° |
| 2026-05-04 06:59 | 20.25223 | 71.44854 | 31916 ft | 510 kts | 107° |
| 2026-05-04 06:59 | 20.24087 | 71.48434 | 31578 ft | 511 kts | 107° |
| 2026-05-04 06:59 | 20.22963 | 71.51976 | 31266 ft | 511 kts | 107° |
| 2026-05-04 07:01 | 20.07741 | 71.72693 | 28898 ft | 506 kts | 133° |
| 2026-05-04 07:01 | 20.05348 | 71.75432 | 28537 ft | 502 kts | 133° |
| 2026-05-04 07:02 | 20.02980 | 71.78148 | 28191 ft | 498 kts | 133° |
| 2026-05-04 07:02 | 20.00632 | 71.80842 | 27839 ft | 495 kts | 133° |
| 2026-05-04 07:02 | 19.98327 | 71.83488 | 27496 ft | 492 kts | 133° |
| 2026-05-04 07:02 | 19.96012 | 71.86145 | 27150 ft | 488 kts | 133° |
| 2026-05-04 07:03 | 19.93711 | 71.88784 | 26812 ft | 485 kts | 133° |
| 2026-05-04 07:03 | 19.91425 | 71.91406 | 26486 ft | 481 kts | 133° |
| 2026-05-04 07:03 | 19.89154 | 71.94010 | 26158 ft | 478 kts | 133° |
| 2026-05-04 07:03 | 19.86904 | 71.96588 | 25827 ft | 474 kts | 133° |
| 2026-05-04 07:04 | 19.84669 | 71.99148 | 25498 ft | 470 kts | 133° |
| 2026-05-04 07:04 | 19.82453 | 72.01685 | 25183 ft | 467 kts | 133° |
| 2026-05-04 07:04 | 19.80251 | 72.04205 | 24867 ft | 463 kts | 133° |
| 2026-05-04 07:04 | 19.78057 | 72.06709 | 24547 ft | 460 kts | 134° |
| 2026-05-04 07:05 | 19.75767 | 72.09064 | 24247 ft | 457 kts | 138° |
| 2026-05-04 07:05 | 19.73444 | 72.11296 | 23945 ft | 454 kts | 139° |
| 2026-05-04 07:05 | 19.71094 | 72.13524 | 23641 ft | 452 kts | 139° |
| 2026-05-04 07:05 | 19.68761 | 72.15734 | 23326 ft | 449 kts | 139° |
| 2026-05-04 07:06 | 19.64125 | 72.20130 | 22596 ft | 443 kts | 139° |
| 2026-05-04 07:06 | 19.61838 | 72.22300 | 22242 ft | 441 kts | 139° |
| 2026-05-04 07:06 | 19.59559 | 72.24462 | 21883 ft | 438 kts | 139° |
| 2026-05-04 07:07 | 19.57295 | 72.26610 | 21532 ft | 435 kts | 139° |
| 2026-05-04 07:08 | 19.41921 | 72.41171 | 19194 ft | 414 kts | 139° |
| 2026-05-04 07:09 | 19.39780 | 72.43196 | 18872 ft | 411 kts | 140° |
| 2026-05-04 07:09 | 19.37649 | 72.45210 | 18552 ft | 409 kts | 140° |
| 2026-05-04 07:09 | 19.35532 | 72.47211 | 18246 ft | 407 kts | 140° |
| 2026-05-04 07:09 | 19.33430 | 72.49197 | 17898 ft | 401 kts | 140° |
| 2026-05-04 07:10 | 19.31386 | 72.51129 | 17514 ft | 382 kts | 139° |
| 2026-05-04 07:10 | 19.29500 | 72.52912 | 17150 ft | 356 kts | 140° |
| 2026-05-04 07:12 | 19.21519 | 72.66143 | 14661 ft | 305 kts | 91° |
| 2026-05-04 07:12 | 19.21500 | 72.68379 | 14266 ft | 304 kts | 90° |
| 2026-05-04 07:12 | 19.21502 | 72.70609 | 13880 ft | 301 kts | 89° |
| 2026-05-04 07:12 | 19.21500 | 72.72815 | 13477 ft | 299 kts | 89° |
| 2026-05-04 07:13 | 19.21494 | 72.75001 | 13047 ft | 296 kts | 89° |
| 2026-05-04 07:13 | 19.21485 | 72.77176 | 12621 ft | 294 kts | 89° |
| 2026-05-04 07:13 | 19.21474 | 72.79299 | 12201 ft | 291 kts | 89° |
| 2026-05-04 07:14 | 19.21421 | 72.87739 | 10581 ft | 283 kts | 89° |
| 2026-05-04 07:14 | 19.21406 | 72.89814 | 10183 ft | 281 kts | 88° |
| 2026-05-04 07:15 | 19.21392 | 72.91859 | 9786 ft | 274 kts | 88° |
| 2026-05-04 07:15 | 19.21377 | 72.93835 | 9358 ft | 264 kts | 88° |
| 2026-05-04 07:15 | 19.21362 | 72.95752 | 8896 ft | 258 kts | 87° |
| 2026-05-04 07:15 | 19.21348 | 72.97639 | 8429 ft | 255 kts | 87° |
| 2026-05-04 07:16 | 19.21335 | 72.99501 | 8076 ft | 251 kts | 87° |
| 2026-05-04 07:16 | 19.21322 | 73.01338 | 7669 ft | 249 kts | 87° |
| 2026-05-04 07:16 | 19.21308 | 73.03140 | 7280 ft | 247 kts | 87° |
| 2026-05-04 07:16 | 19.21295 | 73.04958 | 6879 ft | 246 kts | 87° |
| 2026-05-04 07:17 | 19.21281 | 73.06763 | 6479 ft | 244 kts | 87° |
| 2026-05-04 07:17 | 19.21267 | 73.08553 | 6085 ft | 243 kts | 87° |
| 2026-05-04 07:17 | 19.21253 | 73.10335 | 5671 ft | 242 kts | 88° |
| 2026-05-04 07:17 | 19.21239 | 73.12108 | 5265 ft | 240 kts | 88° |
| 2026-05-04 07:18 | 19.21230 | 73.13868 | 4940 ft | 237 kts | 89° |
| 2026-05-04 07:18 | 19.20970 | 73.15556 | 4841 ft | 234 kts | 115° |
| 2026-05-04 07:18 | 19.19942 | 73.16859 | 4868 ft | 232 kts | 148° |
| 2026-05-04 07:18 | 19.18479 | 73.17524 | 4854 ft | 229 kts | 169° |
| 2026-05-04 07:19 | 19.16907 | 73.17823 | 4857 ft | 230 kts | 176° |
| 2026-05-04 07:19 | 19.15319 | 73.18045 | 4848 ft | 230 kts | 176° |
| 2026-05-04 07:19 | 19.13732 | 73.18246 | 4866 ft | 229 kts | 177° |
| 2026-05-04 07:19 | 19.12171 | 73.18441 | 4867 ft | 229 kts | 178° |
| 2026-05-04 07:20 | 19.10674 | 73.18198 | 4825 ft | 208 kts | 215° |
| 2026-05-04 07:20 | 19.09820 | 73.17204 | 4845 ft | 173 kts | 244° |
| 2026-05-04 07:20 | 19.09443 | 73.16047 | 4853 ft | 166 kts | 263° |
| 2026-05-04 07:20 | 19.09320 | 73.14836 | 4833 ft | 165 kts | 270° |
| 2026-05-04 07:22 | 19.09167 | 73.06539 | 3358 ft | 163 kts | 269° |
| 2026-05-04 07:22 | 19.09150 | 73.05338 | 3158 ft | 163 kts | 267° |
| 2026-05-04 07:23 | 19.09133 | 73.04160 | 2970 ft | 163 kts | 266° |
| 2026-05-04 07:23 | 19.09114 | 73.02972 | 2749 ft | 160 kts | 268° |
| 2026-05-04 07:23 | 19.09096 | 73.01797 | 2544 ft | 160 kts | 268° |
| 2026-05-04 07:23 | 19.09080 | 73.00622 | 2342 ft | 159 kts | 266° |
| 2026-05-04 07:24 | 19.09063 | 72.99468 | 2137 ft | 155 kts | 266° |
| 2026-05-04 07:24 | 19.09044 | 72.98328 | 1938 ft | 155 kts | 267° |
| 2026-05-04 07:24 | 19.09030 | 72.97233 | 1761 ft | 141 kts | 266° |
| 2026-05-04 07:24 | 19.09014 | 72.96240 | 1575 ft | 133 kts | 265° |
| 2026-05-04 07:25 | 19.08999 | 72.95260 | 1402 ft | 134 kts | 266° |
| 2026-05-04 07:26 | 19.08893 | 72.88228 | 206 ft | 135 kts | 265° |
| 2026-05-04 07:27 | 19.08886 | 72.87243 | 60 ft | 131 kts | 269° |
| 2026-05-04 07:27 | 19.08872 | 72.86340 | 33 ft | 108 kts | 261° |
| 2026-05-04 07:27 | 19.08856 | 72.85805 | 30 ft | 50 kts | 270° |
| 2026-05-04 07:27 | 19.08937 | 72.85519 | 30 ft | 15 kts | 300° |
| 2026-05-04 07:28 | 19.09019 | 72.85514 | 30 ft | 14 kts | 63° |
| 2026-05-04 07:28 | 19.09025 | 72.85548 | 30 ft | 1 kts | 85° |
| 2026-05-04 07:28 | 19.09027 | 72.85566 | 30 ft | 4 kts | 85° |
| 2026-05-04 07:28 | 19.09028 | 72.85587 | 30 ft | 5 kts | 85° |
| 2026-05-04 07:29 | 19.09031 | 72.85629 | 30 ft | 7 kts | 85° |
| 2026-05-04 07:29 | 19.09037 | 72.85678 | 31 ft | 2 kts | 65° |
| 2026-05-04 07:29 | 19.09042 | 72.85684 | 31 ft | 1 kts | 59° |
| 2026-05-04 07:29 | 19.09043 | 72.85687 | 31 ft | 0 kts | 72° |
| 2026-05-04 07:30 | 19.09035 | 72.85759 | 31 ft | 15 kts | 97° |
| 2026-05-04 07:30 | 19.09029 | 72.85871 | 31 ft | 16 kts | 90° |
| 2026-05-04 07:30 | 19.09031 | 72.86037 | 32 ft | 18 kts | 88° |
| 2026-05-04 07:30 | 19.09033 | 72.86127 | 33 ft | 19 kts | 88° |
| 2026-05-04 07:31 | 19.09037 | 72.86269 | 34 ft | 20 kts | 90° |
| 2026-05-04 07:31 | 19.09037 | 72.86303 | 34 ft | 0 kts | 90° |
| 2026-05-04 07:33 | 19.09063 | 72.86345 | 35 ft | 0 kts | 48° |
| 2026-05-04 07:34 | 19.09096 | 72.86383 | 35 ft | 16 kts | 46° |
| 2026-05-04 07:34 | 19.09136 | 72.86483 | 36 ft | 15 kts | 103° |
| 2026-05-04 07:34 | 19.09072 | 72.86534 | 36 ft | 12 kts | 191° |
| 2026-05-04 07:35 | 19.09048 | 72.86516 | 35 ft | 2 kts | 231° |
| 2026-05-04 07:35 | 19.09038 | 72.86497 | 34 ft | 4 kts | 251° |
| 2026-05-04 07:35 | 19.09034 | 72.86452 | 35 ft | 9 kts | 266° |
| 2026-05-04 07:35 | 19.09031 | 72.86365 | 35 ft | 17 kts | 268° |
| 2026-05-04 07:36 | 19.09026 | 72.86230 | 30 ft | 20 kts | 270° |
| 2026-05-04 07:36 | 19.09036 | 72.86082 | 33 ft | 22 kts | 268° |
| 2026-05-04 07:38 | 19.09156 | 72.85486 | 31 ft | 3 kts | 359° |
| 2026-05-04 07:38 | 19.09158 | 72.85486 | 31 ft | 0 kts | 359° |